createdAt,value
2023-10-09T00:00:16.980Z,29.030000
2023-10-09T00:05:16.921Z,29.030000
2023-10-09T00:10:25.213Z,29.030000
2023-10-09T00:15:18.920Z,29.033000
2023-10-09T00:20:19.015Z,29.033000
2023-10-09T00:25:18.947Z,29.033000
2023-10-09T00:30:25.213Z,29.034000
2023-10-09T00:35:25.176Z,29.034000
2023-10-09T00:40:18.915Z,29.034000
2023-10-09T00:45:18.977Z,29.036000
2023-10-09T00:50:25.288Z,29.036000
2023-10-09T00:55:17.130Z,29.036000
2023-10-09T01:00:17.187Z,29.037000
2023-10-09T01:05:25.394Z,29.037000
2023-10-09T01:10:25.208Z,29.037000
2023-10-09T01:15:25.253Z,29.037000
2023-10-09T01:20:25.181Z,29.037000
2023-10-09T01:25:25.272Z,29.037000
2023-10-09T01:30:25.234Z,29.037000
2023-10-09T01:35:19.056Z,29.037000
2023-10-09T01:40:25.281Z,29.037000
2023-10-09T01:45:17.445Z,29.036000
2023-10-09T01:50:17.015Z,29.036000
2023-10-09T01:55:19.081Z,29.036000
2023-10-09T02:00:19.155Z,29.037000
2023-10-09T02:05:25.294Z,29.037000
2023-10-09T02:10:19.066Z,29.037000
2023-10-09T02:15:25.294Z,29.037000
2023-10-09T02:20:19.117Z,29.037000
2023-10-09T02:25:25.296Z,29.037000
2023-10-09T02:30:25.396Z,29.044000
2023-10-09T02:35:25.299Z,29.044000
2023-10-09T02:40:17.133Z,29.044000
2023-10-09T02:45:17.274Z,29.041000
2023-10-09T02:50:25.657Z,29.041000
2023-10-09T02:55:25.319Z,29.041000
2023-10-09T03:00:25.420Z,29.039000
2023-10-09T03:05:19.173Z,29.039000
2023-10-09T03:10:25.428Z,29.039000
2023-10-09T03:15:25.453Z,29.038000
2023-10-09T03:20:25.319Z,29.038000
2023-10-09T03:25:19.220Z,29.038000
2023-10-09T03:30:19.138Z,29.029000
2023-10-09T03:35:17.388Z,29.029000
2023-10-09T03:40:19.046Z,29.029000
2023-10-09T03:45:19.308Z,29.030000
2023-10-09T03:50:25.506Z,29.030000
2023-10-09T03:55:25.546Z,29.030000
2023-10-09T04:00:18.482Z,29.028000
2023-10-09T04:05:18.426Z,29.028000
2023-10-09T04:10:24.654Z,29.028000
2023-10-09T04:15:24.811Z,29.032000
2023-10-09T04:20:18.527Z,29.032000
2023-10-09T04:25:18.472Z,29.032000
2023-10-09T04:30:24.830Z,29.036000
2023-10-09T04:35:24.707Z,29.036000
2023-10-09T04:40:16.572Z,29.036000
2023-10-09T04:45:16.513Z,29.032000
2023-10-09T04:50:24.654Z,29.032000
2023-10-09T04:55:24.643Z,29.032000
2023-10-09T05:00:24.973Z,29.028000
2023-10-09T05:05:24.693Z,29.028000
2023-10-09T05:10:24.705Z,29.028000
2023-10-09T05:15:18.593Z,29.031000
2023-10-09T05:20:18.615Z,29.031000
2023-10-09T05:25:24.807Z,29.031000
2023-10-09T05:30:24.882Z,29.029000
2023-10-09T05:35:16.880Z,29.029000
2023-10-09T05:40:16.689Z,29.029000
2023-10-09T05:45:24.909Z,29.025000
2023-10-09T05:50:24.850Z,29.025000
2023-10-09T05:55:18.581Z,29.025000
2023-10-09T06:00:24.922Z,29.027000
2023-10-09T06:05:24.855Z,29.027000
2023-10-09T06:10:18.940Z,29.027000
2023-10-09T06:15:18.638Z,29.031000
2023-10-09T06:20:18.692Z,29.031000
2023-10-09T06:25:24.850Z,29.031000
2023-10-09T06:30:16.784Z,29.027000
2023-10-09T06:35:18.761Z,29.027000
2023-10-09T06:40:18.737Z,29.027000
2023-10-09T06:45:18.675Z,29.024000
2023-10-09T06:50:24.941Z,29.024000
2023-10-09T06:55:25.159Z,29.024000
2023-10-09T07:00:24.975Z,29.023000
2023-10-09T07:05:19.136Z,29.023000
2023-10-09T07:10:25.038Z,29.023000
2023-10-09T07:15:25.083Z,29.020000
2023-10-09T07:20:16.939Z,29.020000
2023-10-09T07:25:16.912Z,29.020000
2023-10-09T07:30:25.006Z,29.021000
2023-10-09T07:35:18.746Z,29.021000
2023-10-09T07:40:25.240Z,29.021000
2023-10-09T07:45:25.165Z,29.024000
2023-10-09T07:50:18.731Z,29.024000
2023-10-09T07:55:18.835Z,29.024000
2023-10-09T08:00:18.883Z,29.030000
2023-10-09T08:05:25.074Z,29.030000
2023-10-09T08:10:24.955Z,29.030000
2023-10-09T08:15:16.880Z,29.027000
2023-10-09T08:20:16.921Z,29.027000
2023-10-09T08:25:25.159Z,29.027000
2023-10-09T08:30:25.142Z,29.027000
2023-10-09T08:35:25.193Z,29.027000
2023-10-09T08:40:18.873Z,29.027000
2023-10-09T08:45:25.415Z,29.027000
2023-10-09T08:50:25.146Z,29.027000
2023-10-09T08:55:19.112Z,29.027000
2023-10-09T09:00:25.228Z,29.034000
2023-10-09T09:05:25.280Z,29.034000
2023-10-09T09:10:16.962Z,29.034000
2023-10-09T09:15:25.314Z,29.035000
2023-10-09T09:20:25.343Z,29.035000
2023-10-09T09:25:18.942Z,29.035000
2023-10-09T09:30:25.269Z,29.042000
2023-10-09T09:35:19.040Z,29.042000
2023-10-09T09:40:25.118Z,29.042000
2023-10-09T09:45:25.203Z,29.040000
2023-10-09T09:50:25.262Z,29.040000
2023-10-09T09:55:25.412Z,29.040000
2023-10-09T10:00:17.125Z,29.046000
2023-10-09T10:05:17.126Z,29.046000
2023-10-09T10:10:19.120Z,29.046000
2023-10-09T10:15:26.165Z,29.050000
2023-10-09T10:20:25.262Z,29.050000
2023-10-09T10:25:25.274Z,29.050000
2023-10-09T10:30:25.399Z,29.050000
2023-10-09T10:35:25.266Z,29.050000
2023-10-09T10:40:25.325Z,29.050000
2023-10-09T10:45:25.432Z,29.056000
2023-10-09T10:50:19.129Z,29.056000
2023-10-09T10:55:17.252Z,29.056000
2023-10-09T11:00:17.052Z,29.058000
2023-10-09T11:05:25.526Z,29.058000
2023-10-09T11:10:19.169Z,29.058000
2023-10-09T11:15:19.167Z,29.062000
2023-10-09T11:20:19.301Z,29.062000
2023-10-09T11:25:19.170Z,29.062000
2023-10-09T11:30:19.118Z,29.068000
2023-10-09T11:35:25.450Z,29.068000
2023-10-09T11:40:25.439Z,29.068000
2023-10-09T11:45:19.208Z,29.071000
2023-10-09T11:50:17.299Z,29.071000
2023-10-09T11:55:19.234Z,29.071000
2023-10-09T12:00:25.734Z,29.074000
2023-10-09T12:05:19.293Z,29.074000
2023-10-09T12:10:25.525Z,29.074000
2023-10-09T12:15:25.382Z,29.077000
2023-10-09T12:20:19.293Z,29.077000
2023-10-09T12:25:25.552Z,29.077000
2023-10-09T12:30:19.321Z,29.078000
2023-10-09T12:35:17.299Z,29.078000
2023-10-09T12:40:17.381Z,29.078000
2023-10-09T12:45:17.377Z,29.074000
2023-10-09T12:50:19.483Z,29.074000
2023-10-09T12:55:25.611Z,29.074000
2023-10-09T13:00:25.557Z,29.070000
2023-10-09T13:05:25.565Z,29.070000
2023-10-09T13:10:25.606Z,29.070000
2023-10-09T13:15:25.639Z,29.067000
2023-10-09T13:20:25.739Z,29.067000
2023-10-09T13:25:35.426Z,29.067000
2023-10-09T13:30:25.578Z,29.052000
2023-10-09T13:35:17.521Z,29.052000
2023-10-09T13:40:17.418Z,29.052000
2023-10-09T13:45:25.637Z,29.041000
2023-10-09T13:50:19.496Z,29.041000
2023-10-09T13:55:19.491Z,29.041000
2023-10-09T14:00:25.670Z,29.031000
2023-10-09T14:05:19.551Z,29.031000
2023-10-09T14:10:25.727Z,29.031000
2023-10-09T14:15:19.525Z,29.026000
2023-10-09T14:20:25.669Z,29.026000
2023-10-09T14:25:23.837Z,29.026000
2023-10-09T14:30:17.502Z,29.015000
2023-10-09T14:35:23.903Z,29.015000
2023-10-09T14:40:23.935Z,29.015000
2023-10-09T14:45:23.802Z,29.012000
2023-10-09T14:50:23.974Z,29.012000
2023-10-09T14:55:17.559Z,29.012000
2023-10-09T15:00:17.524Z,29.005000
2023-10-09T15:05:15.558Z,29.005000
2023-10-09T15:10:15.633Z,29.005000
2023-10-09T15:15:23.749Z,28.984000
2023-10-09T15:20:23.911Z,28.984000
2023-10-09T15:25:23.795Z,28.984000
2023-10-09T15:30:17.588Z,28.961000
2023-10-09T15:35:23.945Z,28.961000
2023-10-09T15:40:17.579Z,28.961000
2023-10-09T15:45:23.970Z,28.950000
2023-10-09T15:50:23.907Z,28.950000
2023-10-09T15:55:23.823Z,28.950000
2023-10-09T16:00:15.631Z,28.946000
2023-10-09T16:05:15.724Z,28.946000
2023-10-09T16:10:24.042Z,28.946000
2023-10-09T16:15:17.645Z,28.947000
2023-10-09T16:20:23.976Z,28.947000
2023-10-09T16:25:17.646Z,28.947000
2023-10-09T16:30:17.658Z,28.954000
2023-10-09T16:35:24.089Z,28.954000
2023-10-09T16:40:24.020Z,28.954000
2023-10-09T16:45:24.016Z,28.971000
2023-10-09T16:50:15.794Z,28.971000
2023-10-09T16:55:15.763Z,28.971000
2023-10-09T17:00:17.799Z,28.990000
2023-10-09T17:05:24.086Z,28.990000
2023-10-09T17:10:17.660Z,28.990000
2023-10-09T17:15:23.886Z,28.998000
2023-10-09T17:20:24.062Z,28.998000
2023-10-09T17:25:23.957Z,28.998000
2023-10-09T17:30:23.984Z,29.003000
2023-10-09T17:35:17.806Z,29.003000
2023-10-09T17:40:23.983Z,29.003000
2023-10-09T17:45:15.867Z,29.007000
2023-10-09T17:50:15.909Z,29.007000
2023-10-09T17:55:17.975Z,29.007000
2023-10-09T18:00:24.438Z,29.012000
2023-10-09T18:05:17.859Z,29.012000
2023-10-09T18:10:24.008Z,29.012000
2023-10-09T18:15:24.209Z,29.021000
2023-10-09T18:20:24.038Z,29.021000
2023-10-09T18:25:24.234Z,29.021000
2023-10-09T18:30:17.860Z,29.049000
2023-10-09T18:35:17.915Z,29.049000
2023-10-09T18:40:15.988Z,29.049000
2023-10-09T18:45:24.249Z,29.057000
2023-10-09T18:50:17.886Z,29.057000
2023-10-09T18:55:17.836Z,29.057000
2023-10-09T19:00:17.995Z,29.068000
2023-10-09T19:05:24.162Z,29.068000
2023-10-09T19:10:19.866Z,29.068000
2023-10-09T19:15:24.188Z,29.081000
2023-10-09T19:20:18.231Z,29.081000
2023-10-09T19:25:17.933Z,29.081000
2023-10-09T19:30:16.051Z,29.096000
2023-10-09T19:35:16.045Z,29.096000
2023-10-09T19:40:17.967Z,29.096000
2023-10-09T19:45:24.211Z,29.100000
2023-10-09T19:50:24.456Z,29.100000
2023-10-09T19:55:24.229Z,29.100000
2023-10-09T20:00:17.969Z,29.115000
2023-10-09T20:05:24.545Z,29.115000
2023-10-09T20:10:17.979Z,29.115000
2023-10-09T20:15:24.214Z,29.128000
2023-10-09T20:20:18.142Z,29.128000
2023-10-09T20:25:16.027Z,29.128000
2023-10-09T20:30:16.021Z,29.139000
2023-10-09T20:35:18.188Z,29.139000
2023-10-09T20:40:24.389Z,29.139000
2023-10-09T20:45:24.278Z,29.146000
2023-10-09T20:50:24.337Z,29.146000
2023-10-09T20:55:18.129Z,29.146000
2023-10-09T21:00:24.209Z,29.152000
2023-10-09T21:05:18.177Z,29.152000
2023-10-09T21:10:18.065Z,29.152000
2023-10-09T21:15:16.133Z,29.160000
2023-10-09T21:20:16.136Z,29.160000
2023-10-09T21:25:24.393Z,29.160000
2023-10-09T21:30:24.850Z,29.162000
2023-10-09T21:35:18.217Z,29.162000
2023-10-09T21:40:18.076Z,29.162000
2023-10-09T21:45:18.033Z,29.163000
2023-10-09T21:50:18.202Z,29.163000
2023-10-09T21:55:24.429Z,29.163000
2023-10-09T22:00:18.137Z,29.166000
2023-10-09T22:05:24.402Z,29.166000
2023-10-09T22:10:16.143Z,29.166000
2023-10-09T22:15:16.095Z,29.168000
2023-10-09T22:20:24.514Z,29.168000
2023-10-09T22:25:18.132Z,29.168000
2023-10-09T22:30:18.141Z,29.164000
2023-10-09T22:35:24.361Z,29.164000
2023-10-09T22:40:24.406Z,29.164000
2023-10-09T22:45:18.146Z,29.168000
2023-10-09T22:50:18.376Z,29.168000
2023-10-09T22:55:24.837Z,29.168000
2023-10-09T23:00:18.134Z,29.164000
2023-10-09T23:05:16.313Z,29.164000
2023-10-09T23:10:24.412Z,29.164000
2023-10-09T23:15:18.223Z,29.165000
2023-10-09T23:20:18.352Z,29.165000
2023-10-09T23:25:24.486Z,29.165000
2023-10-09T23:30:24.398Z,29.169000
2023-10-09T23:35:18.310Z,29.169000
2023-10-09T23:40:24.504Z,29.169000
2023-10-09T23:45:18.304Z,29.169000
2023-10-09T23:50:24.417Z,29.169000
2023-10-09T23:55:16.367Z,29.169000
